Sanders, AZ (86512)

4:42 AM MST on September 30, 2014 (GMT -0700)
Window Rock | Change Station
CLOSE
Current Station
Airport
Location: Window Rock,
Elevation: 6742 ft
Nearby Weather Stations

Elev 6742 ft 35.66 °N, 109.06 °W | Updated 1 hour ago

Clear
Clear
38 °F
Feels Like 38 °F
N
0
Wind Variable Wind from North

Today
High -- | Low -- °F
--% Chance of Precip.
Yesterday
High -- | Low -- °F
Precip. -- in
6:11 AM 6:02 PM
Waxing Crescent, 36% visible
Pressure 29.92 in
Visibility 10.0 miles
Clouds Clear
Dew Point 34 °F
Humidity 86%
Rainfall 0.00 in
Snow Depth 2 in , 1 in , 1 in
UV 0 out of 12
Pollen 4.70 out of 12
Air Quality Not available.
Flu Activity Not available.
METAR KRQE 300953Z AUTO 00000KT 10SM CLR 03/01 A3012 RMK AO2 SLP130 T00330011 TSNO

More Conditions Fewer Conditions

Pressure 29.92 in
Visibility 10.0 miles
Clouds Clear
Dew Point 34 °F
Humidity 86%
Rainfall 0.00 in
Snow Depth 2 in , 1 in , 1 in
UV 0 out of 12
Pollen 4.70 out of 12
Air Quality Not available.
Flu Activity Not available.
METAR KRQE 300953Z AUTO 00000KT 10SM CLR 03/01 A3012 RMK AO2 SLP130 T00330011 TSNO

More Conditions Fewer Conditions

10-Day Weather Forecast

Almanac

Astronomy

Sep. 30, 2014 Rise Set
Actual Time 6:11 AM MST 6:02 PM MST
Civil Twilight 5:46 AM MST 6:27 PM MST
Nautical Twilight 5:16 AM MST 6:57 PM MST
Astronomical Twilight 4:47 AM MST 7:26 PM MST
Moon 12:12 PM MST 10:45 PM MST
Length of Visible Light 12h 41m
Length of Day
11h 51m
Tomorrow will be 2m 11s shorter.
Waxing Crescent, 36% of the Moon is Illuminated
Today
Waxing Crescent
Oct 1
First Quarter
Oct 8
Full
Oct 15
Last Quarter
Oct 23
New

Today's Extremes

State Highs State Lows

Community

WunderPhotos

Upload Photos

1,757,618 photos uploaded!

Nearby

Snow Depth

Station Depth Elevation
Workman Creek 2 in 6900 ft
White Horse Lake 1 in 7180 ft
Promontory 1 in 7930 ft
Mormon Mountain 0 in 7500 ft
Maverick Fork 1 in 9200 ft

Earthquake Activity

City Distance Mag. Time & Date
No recent earthquake activity has been reported nearby.
Minimum magnitude displayed is 2.5.

Coastal Water Temperatures

Place Temperature
No Stations Reporting

Nearby Weather Stations